Terminal Aerodrome Forecast
Issued by NWS

Home | Current Version | Previous Version | Text Only | Print | Product List | Glossary On
Versions: 1 2 3 4 5 6 7 8 9 10 11 12
000
FTUS43 KOAX 290500
TAFBFF
TAF
KBFF 290530Z 2906/3006 11009KT P6SM SCT050
     FM291000 11007KT 4SM BR BKN025
     FM291500 09010G20KT P6SM OVC050
     FM291900 08012G22KT 5SM -SHRA OVC040
     FM300200 10006KT 4SM -TSRA BKN025CB OVC040=

USA.gov is the U.S. government's official web portal to all federal, state and local government web resources and services.